createdAt,value
2019-05-21T00:02:03.698Z,62.20
2019-05-21T00:04:33.976Z,58.22
2019-05-21T00:07:04.280Z,57.90
2019-05-21T00:09:34.547Z,56.73
2019-05-21T00:12:04.942Z,57.05
2019-05-21T00:14:35.210Z,49.65
2019-05-21T00:17:05.492Z,40.33
2019-05-21T00:19:35.769Z,32.90
2019-05-21T00:22:06.070Z,31.37
2019-05-21T00:24:36.376Z,30.40
2019-05-21T00:27:06.661Z,27.42
2019-05-21T00:30:31.540Z,28.52
2019-05-21T00:33:56.891Z,20.20
2019-05-21T00:37:22.583Z,24.02
2019-05-21T00:40:47.291Z,19.53
2019-05-21T00:43:20.822Z,16.42
2019-05-21T00:45:51.113Z,18.20
2019-05-21T00:48:21.403Z,20.97
2019-05-21T00:50:51.716Z,15.45
2019-05-21T00:53:21.999Z,19.30
2019-05-21T00:55:52.294Z,15.83
2019-05-21T00:58:22.604Z,15.25
2019-05-21T01:00:52.861Z,13.56
2019-05-21T01:03:23.155Z,14.83
2019-05-21T01:05:53.728Z,16.25
2019-05-21T01:08:24.786Z,12.37
2019-05-21T01:10:55.333Z,12.58
2019-05-21T01:13:25.619Z,12.35
2019-05-21T01:15:55.912Z,12.45
2019-05-21T01:18:26.204Z,13.32
2019-05-21T01:20:56.883Z,13.65
2019-05-21T01:23:27.172Z,11.12
2019-05-21T01:25:57.739Z,11.68
2019-05-21T01:28:28.016Z,10.90
2019-05-21T01:30:58.593Z,12.13
2019-05-21T01:33:28.875Z,13.50
2019-05-21T01:35:59.164Z,11.60
2019-05-21T01:38:29.770Z,14.73
2019-05-21T01:41:00.051Z,11.90
2019-05-21T01:43:30.338Z,12.18
2019-05-21T01:46:01.152Z,12.63
2019-05-21T01:48:31.690Z,13.00
2019-05-21T01:51:01.966Z,11.93
2019-05-21T01:53:32.253Z,12.30
2019-05-21T01:56:02.542Z,12.78
2019-05-21T01:58:32.825Z,13.48
2019-05-21T02:01:03.539Z,13.30
2019-05-21T02:03:33.796Z,13.53
2019-05-21T02:06:04.366Z,13.80
2019-05-21T02:08:34.655Z,12.47
2019-05-21T02:11:05.076Z,13.18
2019-05-21T02:13:35.362Z,13.23
2019-05-21T02:16:06.077Z,12.18
2019-05-21T02:18:36.355Z,13.32
2019-05-21T02:21:06.647Z,13.78
2019-05-21T02:23:36.943Z,12.58
2019-05-21T02:26:07.230Z,11.06
2019-05-21T02:28:37.601Z,12.70
2019-05-21T02:31:07.871Z,13.05
2019-05-21T02:33:38.860Z,10.65
2019-05-21T02:36:09.142Z,10.55
2019-05-21T02:38:39.421Z,11.53
2019-05-21T02:41:09.702Z,12.25
2019-05-21T02:43:39.976Z,9.80
2019-05-21T02:46:10.269Z,12.78
2019-05-21T02:48:40.794Z,10.78
2019-05-21T02:51:11.076Z,11.77
2019-05-21T02:53:41.361Z,9.05
2019-05-21T02:56:11.645Z,10.10
2019-05-21T02:58:41.933Z,8.95
2019-05-21T03:01:22.852Z,7.80
2019-05-21T03:03:53.224Z,8.75
2019-05-21T03:06:23.479Z,8.43
2019-05-21T03:08:53.854Z,11.83
2019-05-21T03:11:24.181Z,8.38
2019-05-21T03:13:54.440Z,10.20
2019-05-21T03:16:24.720Z,9.30
2019-05-21T03:18:55.024Z,7.20
2019-05-21T03:21:25.310Z,5.53
2019-05-21T03:23:55.582Z,5.70
2019-05-21T03:26:25.858Z,5.30
2019-05-21T03:28:57.275Z,5.05
2019-05-21T03:31:27.701Z,5.90
2019-05-21T03:33:58.252Z,4.30
2019-05-21T03:36:33.576Z,4.28
2019-05-21T03:39:00.899Z,3.90
2019-05-21T03:41:31.181Z,2.70
2019-05-21T03:44:01.874Z,2.85
2019-05-21T03:46:32.228Z,3.92
2019-05-21T03:49:02.500Z,2.90
2019-05-21T03:51:32.855Z,3.40
2019-05-21T03:54:03.134Z,3.55
2019-05-21T03:56:33.421Z,2.63
2019-05-21T03:59:04.097Z,3.58
2019-05-21T04:01:34.376Z,2.95
2019-05-21T04:04:04.723Z,4.25
2019-05-21T04:06:50.672Z,3.34
2019-05-21T04:09:08.901Z,3.98
2019-05-21T04:11:39.176Z,3.24
2019-05-21T04:14:09.629Z,5.05
2019-05-21T04:16:53.690Z,2.92
2019-05-21T04:19:26.365Z,3.35
2019-05-21T04:21:56.745Z,3.60
2019-05-21T04:24:27.021Z,2.65
2019-05-21T04:26:57.304Z,3.80
2019-05-21T04:29:27.588Z,2.53
2019-05-21T04:31:57.849Z,2.55
2019-05-21T04:34:28.130Z,5.46
2019-05-21T04:37:10.086Z,2.47
2019-05-21T04:39:30.489Z,2.07
2019-05-21T04:42:00.963Z,2.50
2019-05-21T04:44:31.243Z,2.02
2019-05-21T04:47:01.578Z,2.83
2019-05-21T04:49:31.877Z,2.55
2019-05-21T04:52:02.162Z,2.27
2019-05-21T04:54:32.435Z,2.47
2019-05-21T04:57:02.711Z,4.62
2019-05-21T04:59:33.014Z,2.50
2019-05-21T05:02:03.274Z,3.20
2019-05-21T05:04:33.544Z,1.97
2019-05-21T05:07:04.098Z,2.67
2019-05-21T05:09:34.432Z,2.45
2019-05-21T05:12:04.699Z,2.20
2019-05-21T05:14:34.976Z,2.40
2019-05-21T05:17:05.253Z,2.20
2019-05-21T05:19:35.738Z,2.20
2019-05-21T05:22:06.489Z,2.58
2019-05-21T05:24:37.316Z,1.95
2019-05-21T05:27:07.663Z,2.83
2019-05-21T05:29:37.944Z,2.98
2019-05-21T05:32:08.253Z,2.10
2019-05-21T05:34:38.526Z,1.80
2019-05-21T05:37:09.114Z,2.00
2019-05-21T05:39:39.383Z,2.25
2019-05-21T05:42:09.662Z,1.87
2019-05-21T05:44:39.941Z,2.00
2019-05-21T05:47:10.218Z,4.30
2019-05-21T05:49:45.084Z,2.80
2019-05-21T05:52:15.379Z,2.10
2019-05-21T05:54:45.652Z,2.62
2019-05-21T05:57:15.944Z,2.00
2019-05-21T05:59:46.529Z,2.40
2019-05-21T06:02:17.056Z,3.63
2019-05-21T06:04:47.351Z,3.72
2019-05-21T06:07:17.631Z,4.75
2019-05-21T06:09:48.039Z,3.90
2019-05-21T06:12:18.309Z,4.62
2019-05-21T06:14:48.593Z,4.62
2019-05-21T06:17:18.866Z,4.03
2019-05-21T06:19:49.164Z,6.10
2019-05-21T06:22:19.438Z,7.08
2019-05-21T06:24:49.726Z,4.28
2019-05-21T06:27:20.037Z,4.63
2019-05-21T06:29:50.312Z,3.80
2019-05-21T06:32:20.602Z,3.90
2019-05-21T06:34:50.865Z,4.03
2019-05-21T06:37:21.146Z,4.00
2019-05-21T06:39:51.421Z,3.27
2019-05-21T06:42:21.701Z,3.08
2019-05-21T06:44:51.978Z,2.90
2019-05-21T06:47:22.257Z,4.25
2019-05-21T06:49:53.159Z,4.05
2019-05-21T06:52:23.865Z,3.08
2019-05-21T06:54:54.146Z,2.87
2019-05-21T06:57:24.427Z,3.33
2019-05-21T06:59:54.708Z,3.70
2019-05-21T07:02:25.019Z,3.52
2019-05-21T07:04:55.318Z,5.92
2019-05-21T07:07:25.579Z,4.67
2019-05-21T07:09:55.847Z,5.20
2019-05-21T07:12:26.452Z,5.58
2019-05-21T07:14:56.749Z,6.45
2019-05-21T07:17:27.020Z,5.37
2019-05-21T07:19:57.392Z,3.70
2019-05-21T07:22:27.685Z,2.90
2019-05-21T07:24:58.293Z,3.26
2019-05-21T07:27:28.559Z,2.62
2019-05-21T07:29:58.840Z,2.75
2019-05-21T07:32:30.250Z,3.20
2019-05-21T07:35:00.534Z,2.52
2019-05-21T07:37:30.799Z,2.77
2019-05-21T07:40:01.091Z,2.40
2019-05-21T07:42:31.436Z,3.23
2019-05-21T07:45:01.866Z,2.47
2019-05-21T07:47:32.357Z,4.90
2019-05-21T07:50:02.708Z,2.27
2019-05-21T07:52:33.292Z,2.60
2019-05-21T07:55:03.763Z,2.33
2019-05-21T07:57:34.041Z,1.87
2019-05-21T08:00:06.171Z,1.87
2019-05-21T08:02:36.452Z,1.67
2019-05-21T08:05:07.202Z,1.40
2019-05-21T08:07:37.562Z,1.35
2019-05-21T08:10:09.285Z,1.40
2019-05-21T08:12:40.061Z,1.20
2019-05-21T08:15:11.636Z,1.47
2019-05-21T08:17:41.909Z,1.30
2019-05-21T08:20:13.620Z,1.15
2019-05-21T08:22:43.881Z,1.30
2019-05-21T08:25:15.201Z,3.70
2019-05-21T08:27:45.557Z,1.90
2019-05-21T08:30:16.069Z,1.12
2019-05-21T08:32:46.337Z,1.07
2019-05-21T08:35:17.095Z,3.10
2019-05-21T08:37:47.376Z,1.20
2019-05-21T08:40:20.065Z,1.80
2019-05-21T08:42:50.336Z,1.62
2019-05-21T08:45:21.467Z,1.85
2019-05-21T08:47:51.745Z,1.80
2019-05-21T08:50:22.098Z,1.50
2019-05-21T08:52:52.386Z,1.80
2019-05-21T08:55:22.657Z,1.40
2019-05-21T08:58:06.596Z,1.30
2019-05-21T09:00:25.522Z,1.17
2019-05-21T09:02:55.867Z,1.20
2019-05-21T09:05:26.145Z,1.65
2019-05-21T09:07:56.553Z,1.60
2019-05-21T09:10:26.837Z,2.10
2019-05-21T09:12:57.644Z,1.40
2019-05-21T09:15:27.928Z,2.08
2019-05-21T09:17:58.210Z,2.00
2019-05-21T09:20:28.779Z,2.67
2019-05-21T09:22:59.050Z,2.12
2019-05-21T09:25:29.331Z,2.57
2019-05-21T09:28:00.155Z,2.40
2019-05-21T09:30:30.427Z,3.25
2019-05-21T09:33:00.744Z,3.00
2019-05-21T09:35:31.073Z,2.60
2019-05-21T09:38:01.354Z,3.60
2019-05-21T09:40:33.266Z,3.30
2019-05-21T09:43:03.581Z,3.55
2019-05-21T09:45:33.854Z,4.37
2019-05-21T09:48:04.255Z,3.77
2019-05-21T09:50:34.563Z,3.80
2019-05-21T09:53:04.974Z,4.03
2019-05-21T09:55:35.268Z,3.45
2019-05-21T09:58:14.036Z,3.70
2019-05-21T10:01:02.137Z,3.57
2019-05-21T10:03:46.344Z,3.55
2019-05-21T10:06:16.821Z,4.37
2019-05-21T10:08:47.162Z,4.22
2019-05-21T10:11:18.006Z,3.65
2019-05-21T10:13:48.293Z,3.92
2019-05-21T10:16:18.574Z,3.58
2019-05-21T10:18:48.949Z,4.55
2019-05-21T10:21:19.253Z,4.15
2019-05-21T10:23:49.796Z,4.67
2019-05-21T10:26:20.425Z,5.95
2019-05-21T10:28:50.698Z,3.47
2019-05-21T10:31:20.986Z,5.47
2019-05-21T10:33:51.265Z,4.50
2019-05-21T10:36:21.592Z,3.55
2019-05-21T10:38:51.868Z,6.23
2019-05-21T10:41:22.387Z,5.72
2019-05-21T10:43:52.747Z,4.37
2019-05-21T10:46:23.031Z,3.92
2019-05-21T10:48:53.322Z,4.50
2019-05-21T10:51:23.599Z,3.77
2019-05-21T10:53:55.006Z,2.95
2019-05-21T10:56:25.328Z,3.25
2019-05-21T10:58:55.606Z,3.20
2019-05-21T11:01:46.019Z,2.50
2019-05-21T11:04:20.799Z,2.92
2019-05-21T11:06:51.298Z,2.47
2019-05-21T11:09:23.167Z,2.12
2019-05-21T11:11:53.510Z,2.60
2019-05-21T11:14:23.853Z,2.47
2019-05-21T11:16:54.141Z,3.12
2019-05-21T11:19:24.488Z,2.58
2019-05-21T11:21:54.829Z,5.32
2019-05-21T11:24:25.102Z,3.02
2019-05-21T11:26:55.396Z,2.75
2019-05-21T11:29:25.915Z,4.10
2019-05-21T11:31:57.664Z,3.27
2019-05-21T11:34:28.157Z,4.42
2019-05-21T11:36:58.705Z,4.37
2019-05-21T11:39:28.993Z,5.12
2019-05-21T11:41:59.265Z,4.78
2019-05-21T11:44:29.561Z,4.90
2019-05-21T11:46:59.911Z,4.08
2019-05-21T11:49:30.196Z,5.17
2019-05-21T11:52:00.475Z,7.87
2019-05-21T11:54:30.995Z,5.72
2019-05-21T11:57:01.276Z,6.30
2019-05-21T11:59:31.559Z,5.93
2019-05-21T12:02:01.834Z,6.53
2019-05-21T12:04:32.115Z,6.42
2019-05-21T12:07:03.667Z,5.70
2019-05-21T12:09:34.053Z,7.58
2019-05-21T12:12:04.473Z,5.30
2019-05-21T12:14:35.655Z,6.30
2019-05-21T12:17:05.937Z,6.17
2019-05-21T12:19:36.235Z,6.77
2019-05-21T12:22:06.521Z,7.17
2019-05-21T12:24:36.847Z,7.67
2019-05-21T12:27:07.195Z,10.23
2019-05-21T12:29:38.038Z,7.47
2019-05-21T12:32:08.314Z,7.60
2019-05-21T12:34:39.096Z,7.87
2019-05-21T12:37:09.548Z,7.42
2019-05-21T12:39:39.836Z,9.30
2019-05-21T12:42:10.529Z,8.55
2019-05-21T12:44:41.165Z,9.98
2019-05-21T12:47:11.396Z,7.63
2019-05-21T12:49:41.673Z,7.73
2019-05-21T12:52:11.950Z,8.45
2019-05-21T12:54:42.227Z,7.00
2019-05-21T12:57:13.151Z,7.45
2019-05-21T12:59:44.553Z,7.40
2019-05-21T13:02:14.908Z,6.70
2019-05-21T13:04:45.359Z,6.53
2019-05-21T13:07:15.695Z,7.67
2019-05-21T13:09:45.937Z,7.78
2019-05-21T13:12:16.219Z,9.45
2019-05-21T13:14:46.546Z,8.50
2019-05-21T13:17:16.898Z,7.58
2019-05-21T13:19:47.188Z,7.60
2019-05-21T13:22:17.595Z,6.12
2019-05-21T13:24:47.938Z,6.83
2019-05-21T13:27:18.215Z,6.45
2019-05-21T13:29:48.529Z,7.53
2019-05-21T13:32:19.062Z,6.53
2019-05-21T13:34:49.379Z,7.83
2019-05-21T13:37:19.709Z,6.45
2019-05-21T13:39:50.737Z,8.33
2019-05-21T13:42:21.513Z,6.87
2019-05-21T13:44:51.809Z,5.55
2019-05-21T13:47:22.098Z,8.58
2019-05-21T13:49:52.380Z,7.17
2019-05-21T13:52:22.991Z,6.90
2019-05-21T13:54:53.472Z,7.57
2019-05-21T13:57:23.757Z,6.75
2019-05-21T13:59:54.369Z,6.15
2019-05-21T14:02:24.661Z,6.25
2019-05-21T14:04:55.049Z,5.08
2019-05-21T14:07:28.348Z,7.40
2019-05-21T14:10:14.346Z,5.12
2019-05-21T14:12:34.452Z,4.85
2019-05-21T14:17:55.765Z,3.90
2019-05-21T14:20:26.127Z,3.98
2019-05-21T14:22:57.142Z,6.83
2019-05-21T14:25:27.492Z,4.33
2019-05-21T14:27:57.793Z,4.95
2019-05-21T14:30:28.191Z,4.40
2019-05-21T14:32:58.513Z,4.87
2019-05-21T14:35:28.790Z,5.30
2019-05-21T14:37:59.134Z,5.00
2019-05-21T14:40:32.604Z,5.97
2019-05-21T14:43:02.515Z,5.12
2019-05-21T14:45:34.488Z,6.10
2019-05-21T14:48:05.040Z,5.83
2019-05-21T14:50:35.360Z,6.22
2019-05-21T14:53:05.666Z,8.90
2019-05-21T14:55:35.934Z,6.83
2019-05-21T14:58:06.205Z,6.53
2019-05-21T15:00:37.942Z,6.47
2019-05-21T15:03:23.871Z,5.80
2019-05-21T15:05:40.188Z,7.05
2019-05-21T15:08:10.474Z,7.37
2019-05-21T15:10:48.365Z,6.08
2019-05-21T15:13:12.807Z,6.08
2019-05-21T15:15:43.327Z,7.40
2019-05-21T15:18:20.919Z,6.90
2019-05-21T15:20:50.067Z,6.87
2019-05-21T15:23:20.336Z,7.30
2019-05-21T15:25:52.648Z,7.87
2019-05-21T15:28:23.082Z,7.87
2019-05-21T15:30:53.348Z,8.78
2019-05-21T15:33:23.656Z,9.08
2019-05-21T15:35:53.952Z,8.78
2019-05-21T15:38:24.226Z,8.85
2019-05-21T15:41:09.451Z,10.15
2019-05-21T15:43:26.515Z,9.53
2019-05-21T15:45:56.872Z,11.03
2019-05-21T15:48:27.290Z,8.88
2019-05-21T15:50:57.527Z,12.15
2019-05-21T15:53:27.803Z,8.83
2019-05-21T15:55:58.144Z,11.10
2019-05-21T15:58:28.392Z,10.50
2019-05-21T16:00:58.704Z,10.72
2019-05-21T16:03:28.960Z,9.42
2019-05-21T16:05:59.330Z,9.93
2019-05-21T16:08:29.961Z,9.85
2019-05-21T16:11:00.256Z,11.48
2019-05-21T16:13:30.562Z,10.23
2019-05-21T16:16:00.827Z,9.60
2019-05-21T16:18:31.121Z,11.10
2019-05-21T16:21:01.411Z,14.03
2019-05-21T16:23:32.025Z,10.48
2019-05-21T16:26:02.333Z,12.25
2019-05-21T16:28:32.621Z,10.83
2019-05-21T16:31:02.905Z,11.15
2019-05-21T16:33:33.204Z,13.03
2019-05-21T16:36:03.514Z,11.35
2019-05-21T16:38:33.867Z,11.93
2019-05-21T16:41:05.488Z,13.38
2019-05-21T16:43:36.060Z,12.85
2019-05-21T16:46:06.483Z,14.82
2019-05-21T16:48:36.779Z,14.23
2019-05-21T16:51:07.148Z,13.62
2019-05-21T16:53:37.679Z,13.83
2019-05-21T16:56:08.671Z,13.03
2019-05-21T16:58:38.922Z,12.78
2019-05-21T17:01:09.552Z,14.90
2019-05-21T17:03:39.911Z,14.58
2019-05-21T17:06:10.272Z,13.05
2019-05-21T17:08:40.589Z,13.62
2019-05-21T17:11:10.880Z,12.70
2019-05-21T17:13:41.175Z,14.90
2019-05-21T17:16:11.556Z,16.65
2019-05-21T17:18:42.136Z,16.67
2019-05-21T17:21:12.498Z,14.28
2019-05-21T17:23:42.820Z,14.93
2019-05-21T17:26:13.149Z,16.52
2019-05-21T17:28:43.502Z,15.38
2019-05-21T17:31:13.858Z,15.20
2019-05-21T17:33:44.219Z,16.48
2019-05-21T17:36:14.509Z,13.20
2019-05-21T17:38:45.451Z,15.20
2019-05-21T17:41:15.751Z,14.23
2019-05-21T17:43:46.041Z,13.98
2019-05-21T17:46:16.838Z,14.78
2019-05-21T17:48:47.361Z,13.20
2019-05-21T17:51:17.654Z,14.80
2019-05-21T17:53:47.965Z,14.40
2019-05-21T17:56:18.266Z,15.43
2019-05-21T17:58:49.513Z,13.78
2019-05-21T18:01:21.359Z,13.88
2019-05-21T18:03:51.642Z,15.13
2019-05-21T18:06:22.006Z,15.53
2019-05-21T18:08:52.288Z,14.55
2019-05-21T18:11:22.818Z,13.53
2019-05-21T18:13:53.172Z,13.02
2019-05-21T18:16:23.935Z,16.82
2019-05-21T18:18:54.285Z,12.70
2019-05-21T18:21:25.375Z,13.43
2019-05-21T18:23:55.735Z,12.17
2019-05-21T18:26:26.026Z,16.42
2019-05-21T18:28:56.381Z,15.58
2019-05-21T18:31:27.178Z,13.87
2019-05-21T18:33:57.526Z,15.17
2019-05-21T18:36:27.855Z,14.93
2019-05-21T18:38:58.156Z,13.62
2019-05-21T18:41:28.470Z,14.55
2019-05-21T18:43:58.748Z,16.10
2019-05-21T18:46:29.034Z,16.40
2019-05-21T18:48:59.321Z,17.30
2019-05-21T18:51:29.656Z,21.90
2019-05-21T18:53:59.949Z,18.82
2019-05-21T18:56:30.244Z,17.66
2019-05-21T18:59:00.762Z,16.57
2019-05-21T19:01:31.364Z,16.85
2019-05-21T19:04:02.317Z,16.85
2019-05-21T19:06:32.636Z,16.30
2019-05-21T19:09:02.933Z,19.23
2019-05-21T19:11:33.328Z,21.12
2019-05-21T19:14:03.915Z,20.55
2019-05-21T19:16:34.233Z,17.40
2019-05-21T19:19:04.771Z,19.12
2019-05-21T19:21:35.064Z,19.07
2019-05-21T19:24:05.498Z,18.17
2019-05-21T19:26:35.782Z,18.27
2019-05-21T19:29:07.954Z,19.40
2019-05-21T19:31:38.310Z,20.37
2019-05-21T19:34:08.596Z,20.63
2019-05-21T19:36:38.891Z,20.27
2019-05-21T19:39:09.190Z,23.27
2019-05-21T19:41:39.550Z,19.92
2019-05-21T19:44:10.186Z,20.17
2019-05-21T19:46:40.612Z,21.57
2019-05-21T19:49:12.142Z,21.57
2019-05-21T19:51:43.656Z,19.92
2019-05-21T19:54:13.873Z,20.97
2019-05-21T19:56:44.355Z,20.35
2019-05-21T19:59:14.652Z,20.15
2019-05-21T20:01:45.312Z,19.65
2019-05-21T20:04:16.032Z,19.25
2019-05-21T20:06:46.335Z,19.98
2019-05-21T20:09:17.448Z,19.73
2019-05-21T20:11:47.755Z,22.77
2019-05-21T20:14:18.363Z,19.10
2019-05-21T20:16:48.981Z,19.55
2019-05-21T20:19:21.750Z,19.98
2019-05-21T20:21:53.088Z,19.40
2019-05-21T20:24:24.152Z,19.92
2019-05-21T20:26:54.559Z,20.48
2019-05-21T20:29:24.919Z,19.27
2019-05-21T20:31:55.210Z,20.03
2019-05-21T20:34:25.862Z,18.90
2019-05-21T20:36:56.697Z,22.25
2019-05-21T20:39:28.883Z,18.92
2019-05-21T20:41:59.609Z,20.10
2019-05-21T20:44:30.165Z,19.00
2019-05-21T20:47:00.545Z,20.23
2019-05-21T20:49:30.908Z,17.55
2019-05-21T20:52:16.082Z,20.08
2019-05-21T20:54:34.872Z,18.92
2019-05-21T20:57:06.871Z,19.33
2019-05-21T20:59:37.331Z,18.10
2019-05-21T21:02:09.699Z,21.05
2019-05-21T21:04:40.430Z,21.95
2019-05-21T21:07:10.786Z,20.15
2019-05-21T21:09:41.466Z,22.90
2019-05-21T21:12:12.599Z,24.27
2019-05-21T21:14:44.346Z,21.70
2019-05-21T21:17:17.025Z,21.48
2019-05-21T21:19:47.811Z,17.02
2019-05-21T21:22:18.394Z,23.77
2019-05-21T21:24:49.476Z,23.52
2019-05-21T21:27:20.023Z,22.48
2019-05-21T21:29:50.310Z,20.97
2019-05-21T21:32:21.351Z,22.13
2019-05-21T21:34:51.699Z,21.95
2019-05-21T21:37:22.708Z,25.27
2019-05-21T21:39:53.083Z,23.68
2019-05-21T21:42:23.551Z,23.27
2019-05-21T21:44:54.301Z,24.80
2019-05-21T21:47:24.601Z,22.57
2019-05-21T21:49:56.053Z,22.75
2019-05-21T21:52:26.712Z,23.60
2019-05-21T21:54:57.089Z,23.42
2019-05-21T21:57:27.374Z,23.50
2019-05-21T21:59:58.010Z,25.02
2019-05-21T22:02:35.519Z,23.00
2019-05-21T22:05:09.301Z,22.85
2019-05-21T22:07:39.585Z,21.80
2019-05-21T22:10:09.964Z,21.60
2019-05-21T22:12:40.262Z,23.90
2019-05-21T22:15:11.427Z,21.48
2019-05-21T22:17:42.114Z,21.37
2019-05-21T22:20:14.280Z,19.00
2019-05-21T22:22:44.869Z,18.50
2019-05-21T22:25:15.709Z,21.42
2019-05-21T22:27:46.284Z,26.33
2019-05-21T22:30:17.777Z,21.57
2019-05-21T22:32:48.092Z,22.10
2019-05-21T22:35:18.447Z,19.98
2019-05-21T22:37:48.840Z,20.37
2019-05-21T22:40:19.115Z,21.42
2019-05-21T22:42:49.622Z,19.62
2019-05-21T22:45:20.070Z,24.03
2019-05-21T22:47:50.441Z,20.02
2019-05-21T22:50:20.797Z,21.55
2019-05-21T22:52:52.137Z,19.35
2019-05-21T22:55:23.546Z,24.10
2019-05-21T22:57:53.917Z,21.35
2019-05-21T23:00:24.967Z,20.37
2019-05-21T23:02:56.125Z,22.80
2019-05-21T23:05:26.409Z,19.07
2019-05-21T23:07:57.112Z,23.57
2019-05-21T23:10:27.572Z,21.00
2019-05-21T23:12:57.853Z,22.00
2019-05-21T23:15:28.969Z,25.83
2019-05-21T23:18:00.350Z,21.50
2019-05-21T23:20:33.337Z,23.62
2019-05-21T23:23:04.959Z,23.20
2019-05-21T23:25:36.518Z,22.57
2019-05-21T23:28:06.810Z,22.40
2019-05-21T23:30:37.755Z,24.23
2019-05-21T23:33:10.121Z,22.70
2019-05-21T23:35:41.163Z,19.65
2019-05-21T23:38:13.442Z,22.48
2019-05-21T23:40:44.393Z,19.98
2019-05-21T23:43:15.496Z,27.40
2019-05-21T23:45:45.916Z,22.77
2019-05-21T23:48:17.723Z,22.62
2019-05-21T23:50:48.508Z,22.77
2019-05-21T23:53:18.862Z,20.52
2019-05-21T23:55:49.227Z,22.02
2019-05-21T23:58:20.545Z,17.35
